Time;durP1;ratioP1;P1;durP2;ratioP2;P2;SDS_P1;SDS_P2;PMS_P1;PMS_P2;Temp;Humidity;BMP_temperature;BMP_pressure;BME280_temperature;BME280_humidity;BME280_pressure;Samples;Min_cycle;Max_cycle;Signal;HPM_P1;HPM_P2
2023/08/23 00:01:02;;;;;;;6.70;6.13;;;;;;;;;;4876290;29;20646;-69
2023/08/23 00:03:31;;;;;;;6.93;6.23;;;;;;;;;;4875638;29;20667;-69
2023/08/23 00:05:59;;;;;;;6.80;6.40;;;;;;;;;;4861655;29;20654;-69
2023/08/23 00:08:27;;;;;;;6.33;5.83;;;;;;;;;;4858343;29;20631;-69
2023/08/23 00:10:57;;;;;;;6.70;6.07;;;;;;;;;;4876629;29;21075;-69
2023/08/23 00:13:25;;;;;;;8.83;6.53;;;;;;;;;;4877191;29;20628;-69
2023/08/23 00:15:53;;;;;;;6.93;6.30;;;;;;;;;;4876318;29;20727;-70
2023/08/23 00:18:21;;;;;;;6.67;5.90;;;;;;;;;;4877440;29;20622;-69
2023/08/23 00:20:49;;;;;;;7.90;5.73;;;;;;;;;;4875710;29;20874;-69
2023/08/23 00:23:18;;;;;;;6.23;5.70;;;;;;;;;;4877069;29;20636;-70
2023/08/23 00:25:46;;;;;;;9.73;6.00;;;;;;;;;;4876593;29;20948;-69
2023/08/23 00:28:19;;;;;;;12.60;6.30;;;;;;;;;;4876667;29;20974;-69
2023/08/23 00:30:49;;;;;;;6.37;5.73;;;;;;;;;;4876846;29;20588;-69
2023/08/23 00:33:18;;;;;;;6.87;6.20;;;;;;;;;;4878029;29;20599;-70
2023/08/23 00:35:46;;;;;;;6.27;5.67;;;;;;;;;;4880302;29;20666;-70
2023/08/23 00:38:14;;;;;;;6.77;5.87;;;;;;;;;;4879494;29;20618;-69
2023/08/23 00:40:42;;;;;;;7.33;6.30;;;;;;;;;;4863559;29;20635;-70
2023/08/23 00:43:10;;;;;;;10.33;6.47;;;;;;;;;;4879371;29;20619;-70
2023/08/23 00:45:41;;;;;;;7.80;6.73;;;;;;;;;;4863561;29;20969;-69
2023/08/23 00:48:11;;;;;;;6.63;5.57;;;;;;;;;;4879406;29;20613;-70
2023/08/23 00:50:40;;;;;;;6.50;6.03;;;;;;;;;;4879990;29;20678;-70
2023/08/23 00:53:09;;;;;;;6.60;6.00;;;;;;;;;;4862881;29;20610;-69
2023/08/23 00:55:37;;;;;;;7.10;6.57;;;;;;;;;;4879593;29;20668;-69
2023/08/23 00:58:06;;;;;;;7.43;6.70;;;;;;;;;;4863090;29;20618;-70
2023/08/23 01:00:34;;;;;;;7.53;6.23;;;;;;;;;;4862914;29;20646;-69
2023/08/23 01:03:04;;;;;;;6.37;5.87;;;;;;;;;;4877901;29;20630;-69
2023/08/23 01:05:35;;;;;;;6.87;6.27;;;;;;;;;;4869656;29;21177;-69
2023/08/23 01:08:05;;;;;;;10.17;5.77;;;;;;;;;;4879001;29;20599;-69
2023/08/23 01:10:36;;;;;;;7.87;6.30;;;;;;;;;;4879199;29;20637;-69
2023/08/23 01:13:10;;;;;;;6.80;6.23;;;;;;;;;;4878801;29;21206;-69
2023/08/23 01:15:38;;;;;;;7.77;6.80;;;;;;;;;;4879213;29;21152;-69
2023/08/23 01:18:08;;;;;;;6.80;6.20;;;;;;;;;;4879004;29;20634;-69
2023/08/23 01:20:37;;;;;;;14.20;7.93;;;;;;;;;;4878980;29;20623;-69
2023/08/23 01:23:14;;;;;;;7.27;6.57;;;;;;;;;;4879228;29;20615;-69
2023/08/23 01:25:45;;;;;;;9.57;6.80;;;;;;;;;;4879242;29;20591;-69
2023/08/23 01:28:13;;;;;;;8.00;6.40;;;;;;;;;;4879202;29;20631;-69
2023/08/23 01:30:42;;;;;;;7.13;6.23;;;;;;;;;;4878894;29;20627;-69
2023/08/23 01:33:14;;;;;;;7.17;6.57;;;;;;;;;;4878714;29;20623;-69
2023/08/23 01:35:47;;;;;;;11.77;6.00;;;;;;;;;;4878895;29;20998;-69
2023/08/23 01:38:18;;;;;;;6.30;5.80;;;;;;;;;;4862595;29;20591;-69
2023/08/23 01:40:46;;;;;;;7.00;6.50;;;;;;;;;;4878663;29;20599;-69
2023/08/23 01:43:15;;;;;;;8.53;6.40;;;;;;;;;;4878735;29;20633;-69
2023/08/23 01:45:43;;;;;;;6.90;6.30;;;;;;;;;;4878102;29;20623;-69
2023/08/23 01:48:11;;;;;;;8.90;6.30;;;;;;;;;;4878374;29;20973;-69
2023/08/23 01:50:39;;;;;;;7.80;7.07;;;;;;;;;;4878624;29;20986;-69
2023/08/23 01:53:07;;;;;;;6.97;6.37;;;;;;;;;;4861731;29;20623;-69
2023/08/23 01:55:37;;;;;;;6.53;5.87;;;;;;;;;;4878473;29;20631;-69
2023/08/23 01:58:05;;;;;;;6.13;5.50;;;;;;;;;;4861884;29;20619;-69
2023/08/23 02:00:33;;;;;;;7.20;6.23;;;;;;;;;;4878492;29;20630;-69
2023/08/23 02:03:02;;;;;;;7.97;6.27;;;;;;;;;;4876935;29;20658;-69
2023/08/23 02:05:31;;;;;;;10.60;6.50;;;;;;;;;;4861176;29;21208;-69
2023/08/23 02:08:01;;;;;;;6.73;6.23;;;;;;;;;;4861786;29;20583;-70
2023/08/23 02:10:29;;;;;;;8.50;7.00;;;;;;;;;;4878339;29;21373;-69
2023/08/23 02:12:59;;;;;;;7.70;7.07;;;;;;;;;;4877981;29;20982;-69
2023/08/23 02:15:27;;;;;;;11.77;7.57;;;;;;;;;;4862151;29;20603;-69
2023/08/23 02:17:56;;;;;;;8.00;7.30;;;;;;;;;;4861367;29;20620;-69
2023/08/23 02:20:24;;;;;;;6.33;5.83;;;;;;;;;;4876746;29;20635;-69
2023/08/23 02:22:52;;;;;;;7.60;6.77;;;;;;;;;;4877972;29;20623;-69
2023/08/23 02:25:20;;;;;;;6.77;6.27;;;;;;;;;;4878280;29;20631;-69
2023/08/23 02:27:49;;;;;;;9.23;6.50;;;;;;;;;;4861214;29;21185;-69
2023/08/23 02:30:18;;;;;;;7.77;7.07;;;;;;;;;;4877730;29;21386;-69
2023/08/23 02:32:46;;;;;;;10.20;6.93;;;;;;;;;;4877616;29;20659;-69
2023/08/23 02:35:16;;;;;;;8.00;7.30;;;;;;;;;;4877833;29;20631;-69
2023/08/23 02:37:45;;;;;;;7.73;7.23;;;;;;;;;;4861045;29;21205;-70
2023/08/23 02:40:14;;;;;;;7.37;6.73;;;;;;;;;;4878089;29;20611;-69
2023/08/23 02:42:42;;;;;;;7.80;7.10;;;;;;;;;;4860999;29;20633;-69
2023/08/23 02:45:10;;;;;;;7.87;7.00;;;;;;;;;;4877739;29;20678;-69
2023/08/23 02:47:41;;;;;;;9.53;8.20;;;;;;;;;;4877885;29;20637;-69
2023/08/23 02:50:10;;;;;;;8.47;7.67;;;;;;;;;;4877692;29;20947;-69
2023/08/23 02:52:38;;;;;;;8.40;7.43;;;;;;;;;;4877582;29;20630;-69
2023/08/23 02:55:06;;;;;;;8.17;7.43;;;;;;;;;;4877463;29;20619;-69
2023/08/23 02:57:35;;;;;;;7.43;6.90;;;;;;;;;;4877276;29;20659;-69
2023/08/23 03:00:03;;;;;;;10.53;6.87;;;;;;;;;;4877673;29;20603;-69
2023/08/23 03:02:32;;;;;;;8.10;7.40;;;;;;;;;;4876723;29;20623;-69
2023/08/23 03:05:02;;;;;;;8.40;7.70;;;;;;;;;;4876106;29;20685;-69
2023/08/23 03:07:30;;;;;;;10.20;7.60;;;;;;;;;;4877590;29;20620;-69
2023/08/23 03:09:58;;;;;;;8.93;8.10;;;;;;;;;;4877274;29;20697;-69
2023/08/23 03:12:26;;;;;;;8.50;7.03;;;;;;;;;;4877520;29;20639;-69
2023/08/23 03:14:55;;;;;;;10.03;8.50;;;;;;;;;;4877091;29;20620;-69
2023/08/23 03:17:23;;;;;;;7.80;7.20;;;;;;;;;;4877395;29;20662;-69
2023/08/23 03:19:55;;;;;;;11.07;7.97;;;;;;;;;;4877552;29;20591;-69
2023/08/23 03:22:25;;;;;;;8.60;8.00;;;;;;;;;;4877809;29;20603;-69
2023/08/23 03:24:53;;;;;;;9.60;8.20;;;;;;;;;;4860602;29;20627;-70
2023/08/23 03:27:21;;;;;;;8.07;7.37;;;;;;;;;;4861302;29;20617;-70
2023/08/23 03:29:50;;;;;;;9.17;8.10;;;;;;;;;;4860570;29;20627;-69
2023/08/23 03:32:19;;;;;;;9.10;8.30;;;;;;;;;;4861060;29;20623;-69
2023/08/23 03:34:47;;;;;;;9.10;8.20;;;;;;;;;;4860645;29;20641;-68
2023/08/23 03:37:15;;;;;;;9.23;8.33;;;;;;;;;;4876873;29;21263;-68
2023/08/23 03:39:46;;;;;;;12.03;8.40;;;;;;;;;;4861106;29;21155;-69
2023/08/23 03:42:14;;;;;;;11.03;9.23;;;;;;;;;;4876970;29;20614;-70
2023/08/23 03:44:42;;;;;;;12.83;8.13;;;;;;;;;;4876968;29;21159;-70
2023/08/23 03:47:11;;;;;;;9.57;8.60;;;;;;;;;;4860753;29;20671;-69
2023/08/23 03:49:39;;;;;;;10.27;8.23;;;;;;;;;;4876948;29;20619;-69
2023/08/23 03:52:07;;;;;;;9.03;8.23;;;;;;;;;;4860297;29;20635;-69
2023/08/23 03:54:36;;;;;;;8.73;8.03;;;;;;;;;;4860620;29;20619;-69
2023/08/23 03:57:06;;;;;;;9.03;8.23;;;;;;;;;;4860556;29;20663;-69
2023/08/23 03:59:35;;;;;;;8.90;7.50;;;;;;;;;;4876846;29;20675;-69
2023/08/23 04:02:03;;;;;;;8.20;7.50;;;;;;;;;;4859774;29;20623;-69
2023/08/23 04:04:31;;;;;;;9.93;7.90;;;;;;;;;;4847995;29;21320;-69
2023/08/23 04:06:59;;;;;;;12.53;9.30;;;;;;;;;;4858440;29;20621;-69
2023/08/23 04:09:28;;;;;;;10.17;8.07;;;;;;;;;;4861608;29;20620;-69
2023/08/23 04:11:56;;;;;;;9.30;8.50;;;;;;;;;;4861839;29;20680;-69
2023/08/23 04:14:25;;;;;;;9.33;8.43;;;;;;;;;;4845557;29;20616;-69
2023/08/23 04:16:53;;;;;;;9.30;8.50;;;;;;;;;;4845843;29;20664;-69
2023/08/23 04:19:22;;;;;;;10.23;8.00;;;;;;;;;;4861647;29;20996;-69
2023/08/23 04:21:50;;;;;;;8.90;8.10;;;;;;;;;;4872083;29;20694;-69
2023/08/23 04:24:18;;;;;;;9.93;8.63;;;;;;;;;;4880028;29;20652;-71
2023/08/23 04:26:46;;;;;;;10.30;9.27;;;;;;;;;;4880576;29;20623;-68
2023/08/23 04:29:15;;;;;;;11.00;9.13;;;;;;;;;;4879921;29;20734;-68
2023/08/23 04:31:44;;;;;;;9.30;8.07;;;;;;;;;;4860741;29;20628;-68
2023/08/23 04:34:21;;;;;;;9.33;8.53;;;;;;;;;;4845247;29;20915;-69
2023/08/23 04:36:49;;;;;;;9.40;8.50;;;;;;;;;;4862442;29;20639;-69
2023/08/23 04:39:17;;;;;;;9.17;8.20;;;;;;;;;;4859935;29;20684;-69
2023/08/23 04:41:46;;;;;;;16.13;9.50;;;;;;;;;;4860579;29;20632;-68
2023/08/23 04:44:15;;;;;;;14.17;8.57;;;;;;;;;;4844462;29;20627;-69
2023/08/23 04:46:45;;;;;;;15.20;8.93;;;;;;;;;;4866485;29;20683;-68
2023/08/23 04:49:14;;;;;;;8.70;8.00;;;;;;;;;;4859970;29;20632;-69
2023/08/23 04:51:43;;;;;;;10.40;7.97;;;;;;;;;;4860189;29;20638;-69
2023/08/23 04:54:11;;;;;;;13.63;8.40;;;;;;;;;;4861082;29;20611;-68
2023/08/23 04:56:41;;;;;;;9.50;8.10;;;;;;;;;;4863243;29;20637;-69
2023/08/23 04:59:09;;;;;;;9.60;8.77;;;;;;;;;;4878279;29;20634;-70
2023/08/23 05:01:37;;;;;;;9.97;8.70;;;;;;;;;;4879044;29;20610;-69
2023/08/23 05:04:07;;;;;;;11.37;8.60;;;;;;;;;;4887592;29;21270;-69
2023/08/23 05:06:37;;;;;;;9.23;8.53;;;;;;;;;;4881724;29;20643;-69
2023/08/23 05:09:05;;;;;;;9.83;8.90;;;;;;;;;;4898165;29;20642;-69
2023/08/23 05:11:34;;;;;;;13.03;9.00;;;;;;;;;;4897942;29;20948;-69
2023/08/23 05:14:02;;;;;;;10.63;8.70;;;;;;;;;;4898272;29;20622;-69
2023/08/23 05:16:31;;;;;;;10.93;8.60;;;;;;;;;;4881299;29;20599;-69
2023/08/23 05:18:59;;;;;;;9.57;8.60;;;;;;;;;;4881118;29;20658;-69
2023/08/23 05:21:29;;;;;;;11.40;7.60;;;;;;;;;;4881281;29;20634;-69
2023/08/23 05:23:58;;;;;;;9.40;8.43;;;;;;;;;;4881280;29;20677;-69
2023/08/23 05:26:26;;;;;;;9.53;8.10;;;;;;;;;;4898239;29;20599;-69
2023/08/23 05:28:56;;;;;;;9.80;8.03;;;;;;;;;;4897720;29;20618;-69
2023/08/23 05:31:24;;;;;;;8.50;7.70;;;;;;;;;;4898103;29;20625;-70
2023/08/23 05:33:53;;;;;;;10.67;9.47;;;;;;;;;;4880892;29;20628;-69
2023/08/23 05:36:23;;;;;;;9.23;8.30;;;;;;;;;;4882003;29;20610;-69
2023/08/23 05:38:53;;;;;;;9.60;8.70;;;;;;;;;;4865331;29;20662;-69
2023/08/23 05:41:21;;;;;;;11.00;9.10;;;;;;;;;;4898267;29;20625;-69
2023/08/23 05:43:51;;;;;;;11.10;9.00;;;;;;;;;;4897587;29;20622;-69
2023/08/23 05:46:19;;;;;;;15.20;9.47;;;;;;;;;;4880810;29;20622;-69
2023/08/23 05:48:48;;;;;;;12.73;8.37;;;;;;;;;;4897514;29;20618;-69
2023/08/23 05:51:16;;;;;;;10.57;9.60;;;;;;;;;;4880768;29;20628;-69
2023/08/23 05:53:45;;;;;;;9.93;9.17;;;;;;;;;;4897170;29;20618;-69
2023/08/23 05:56:14;;;;;;;9.17;8.37;;;;;;;;;;4897117;29;20630;-69
2023/08/23 05:58:42;;;;;;;9.60;8.50;;;;;;;;;;4897141;29;20664;-69
2023/08/23 06:01:10;;;;;;;15.40;10.20;;;;;;;;;;4896389;29;21092;-69
2023/08/23 06:03:39;;;;;;;14.33;9.47;;;;;;;;;;4894803;29;20670;-68
2023/08/23 06:06:07;;;;;;;15.13;10.07;;;;;;;;;;4861525;29;20624;-68
2023/08/23 06:08:35;;;;;;;11.73;8.90;;;;;;;;;;4873178;29;21264;-70
2023/08/23 06:11:04;;;;;;;13.87;10.47;;;;;;;;;;4898758;29;20618;-68
2023/08/23 06:13:33;;;;;;;10.57;9.67;;;;;;;;;;4889562;29;20627;-68
2023/08/23 06:16:01;;;;;;;16.03;10.10;;;;;;;;;;4881707;29;20630;-69
2023/08/23 06:18:30;;;;;;;10.47;9.30;;;;;;;;;;4881009;29;20658;-68
2023/08/23 06:20:58;;;;;;;11.13;9.93;;;;;;;;;;4864387;29;20635;-69
2023/08/23 06:23:26;;;;;;;10.07;9.17;;;;;;;;;;4866371;29;20639;-68
2023/08/23 06:25:59;;;;;;;13.03;9.00;;;;;;;;;;4862664;29;20620;-68
2023/08/23 06:28:27;;;;;;;13.90;9.30;;;;;;;;;;4862335;29;20584;-69
2023/08/23 06:30:57;;;;;;;14.73;9.07;;;;;;;;;;4861630;29;21335;-69
2023/08/23 06:33:25;;;;;;;10.47;8.53;;;;;;;;;;4876480;29;20711;-68
2023/08/23 06:35:53;;;;;;;10.67;9.57;;;;;;;;;;4880832;29;21336;-69
2023/08/23 06:38:21;;;;;;;11.67;8.07;;;;;;;;;;4878508;29;20670;-68
2023/08/23 06:40:50;;;;;;;9.30;8.50;;;;;;;;;;4877739;29;20630;-69
2023/08/23 06:43:19;;;;;;;10.07;9.17;;;;;;;;;;4878066;29;20627;-69
2023/08/23 06:45:47;;;;;;;10.63;9.63;;;;;;;;;;4877587;29;20626;-69
2023/08/23 06:48:17;;;;;;;13.00;9.43;;;;;;;;;;4877839;29;20627;-68
2023/08/23 06:50:45;;;;;;;11.47;8.90;;;;;;;;;;4878103;29;20623;-69
2023/08/23 06:53:13;;;;;;;10.27;9.20;;;;;;;;;;4877751;29;20676;-69
2023/08/23 06:55:42;;;;;;;16.63;10.03;;;;;;;;;;4877711;29;20625;-68
2023/08/23 06:58:10;;;;;;;9.53;8.80;;;;;;;;;;4877092;29;20666;-68
2023/08/23 07:00:38;;;;;;;9.30;8.60;;;;;;;;;;4877828;29;20619;-69
2023/08/23 07:03:07;;;;;;;16.77;9.33;;;;;;;;;;4860008;29;20745;-68
2023/08/23 07:05:36;;;;;;;8.57;7.90;;;;;;;;;;4877485;29;20590;-69
2023/08/23 07:08:04;;;;;;;9.50;7.50;;;;;;;;;;4877345;29;20660;-68
2023/08/23 07:10:33;;;;;;;14.10;8.27;;;;;;;;;;4878014;29;21188;-68
2023/08/23 07:13:01;;;;;;;10.00;8.40;;;;;;;;;;4877953;29;20623;-68
2023/08/23 07:15:29;;;;;;;12.40;8.47;;;;;;;;;;4877166;29;20627;-68
2023/08/23 07:17:57;;;;;;;12.67;9.00;;;;;;;;;;4877557;29;20979;-68
2023/08/23 07:20:25;;;;;;;10.53;8.33;;;;;;;;;;4876826;29;20680;-68
2023/08/23 07:22:55;;;;;;;15.57;8.30;;;;;;;;;;4878597;29;20615;-68
2023/08/23 07:25:23;;;;;;;9.23;8.13;;;;;;;;;;4877155;29;20627;-68
2023/08/23 07:27:51;;;;;;;11.77;7.60;;;;;;;;;;4878107;29;20615;-69
2023/08/23 07:30:19;;;;;;;18.10;7.60;;;;;;;;;;4877442;29;20616;-68
2023/08/23 07:32:48;;;;;;;8.70;7.80;;;;;;;;;;4878074;29;20619;-68
2023/08/23 07:35:16;;;;;;;8.10;7.30;;;;;;;;;;4876965;29;21182;-68
2023/08/23 07:37:44;;;;;;;8.37;7.77;;;;;;;;;;4861147;29;20630;-68
2023/08/23 07:40:15;;;;;;;8.57;7.80;;;;;;;;;;4877536;29;20667;-68
2023/08/23 07:42:43;;;;;;;10.20;7.67;;;;;;;;;;4878193;29;20589;-66
2023/08/23 07:45:11;;;;;;;8.60;7.70;;;;;;;;;;4880699;29;20630;-66
2023/08/23 07:47:39;;;;;;;17.77;7.63;;;;;;;;;;4881051;29;20615;-66
2023/08/23 07:50:09;;;;;;;8.60;6.97;;;;;;;;;;4880581;29;21207;-66
2023/08/23 07:52:37;;;;;;;8.20;7.30;;;;;;;;;;4880497;29;20700;-66
2023/08/23 07:55:06;;;;;;;12.23;8.17;;;;;;;;;;4881287;29;20627;-67
2023/08/23 07:57:35;;;;;;;9.10;7.07;;;;;;;;;;4879952;29;20626;-67
2023/08/23 08:00:03;;;;;;;19.00;7.93;;;;;;;;;;4863954;29;21008;-67
2023/08/23 08:02:34;;;;;;;10.10;7.47;;;;;;;;;;4879395;29;20595;-66
2023/08/23 08:05:03;;;;;;;11.53;7.07;;;;;;;;;;4874345;29;20688;-66
2023/08/23 08:07:31;;;;;;;11.90;7.33;;;;;;;;;;4861833;29;20628;-67
2023/08/23 08:10:00;;;;;;;13.30;7.00;;;;;;;;;;4861986;29;20624;-67
2023/08/23 08:12:28;;;;;;;12.63;7.50;;;;;;;;;;4861694;29;20620;-67
2023/08/23 08:14:59;;;;;;;6.70;6.10;;;;;;;;;;4861837;29;20624;-67
2023/08/23 08:17:27;;;;;;;8.97;7.30;;;;;;;;;;4861797;29;20643;-66
2023/08/23 08:19:56;;;;;;;9.00;7.20;;;;;;;;;;4861767;29;20691;-70
2023/08/23 08:22:24;;;;;;;13.90;6.70;;;;;;;;;;4861828;29;20630;-68
2023/08/23 08:24:52;;;;;;;9.10;6.53;;;;;;;;;;4861984;29;20619;-69
2023/08/23 08:27:20;;;;;;;11.00;7.40;;;;;;;;;;4861912;29;20618;-65
2023/08/23 08:29:48;;;;;;;7.63;6.90;;;;;;;;;;4861575;29;20676;-66
2023/08/23 08:32:18;;;;;;;13.43;6.10;;;;;;;;;;4861710;29;20645;-66
2023/08/23 08:34:46;;;;;;;7.97;6.53;;;;;;;;;;4878944;29;20645;-66
2023/08/23 08:37:15;;;;;;;8.53;7.07;;;;;;;;;;4879993;29;20618;-67
2023/08/23 08:39:44;;;;;;;8.83;6.57;;;;;;;;;;4879885;29;20685;-66
2023/08/23 08:42:12;;;;;;;7.40;6.67;;;;;;;;;;4880304;29;20619;-67
2023/08/23 08:44:40;;;;;;;9.43;6.57;;;;;;;;;;4879627;29;20646;-67
2023/08/23 08:47:08;;;;;;;8.77;6.67;;;;;;;;;;4880161;29;20611;-66
2023/08/23 08:49:38;;;;;;;7.77;6.40;;;;;;;;;;4879550;29;20977;-67
2023/08/23 08:52:07;;;;;;;8.30;6.60;;;;;;;;;;4879811;29;20627;-67
2023/08/23 08:54:35;;;;;;;8.93;6.27;;;;;;;;;;4862573;29;21084;-68
2023/08/23 08:57:04;;;;;;;9.00;6.90;;;;;;;;;;4878243;29;21202;-67
2023/08/23 08:59:33;;;;;;;7.13;6.50;;;;;;;;;;4862774;29;20669;-67
2023/08/23 09:02:01;;;;;;;8.27;6.53;;;;;;;;;;4879138;29;20818;-67
2023/08/23 09:04:29;;;;;;;7.93;5.87;;;;;;;;;;4878002;29;21011;-67
2023/08/23 09:06:59;;;;;;;7.80;7.10;;;;;;;;;;4879426;29;20750;-67
2023/08/23 09:09:28;;;;;;;8.43;6.70;;;;;;;;;;4879058;29;20633;-67
2023/08/23 09:11:56;;;;;;;6.50;5.90;;;;;;;;;;4863455;29;20611;-67
2023/08/23 09:14:25;;;;;;;7.17;6.57;;;;;;;;;;4873401;29;21197;-67
2023/08/23 09:16:53;;;;;;;8.10;6.33;;;;;;;;;;4879580;29;20615;-67
2023/08/23 09:19:21;;;;;;;7.13;6.43;;;;;;;;;;4879406;29;20663;-67
2023/08/23 09:21:50;;;;;;;10.63;6.50;;;;;;;;;;4879204;29;20986;-67
2023/08/23 09:24:20;;;;;;;7.87;7.13;;;;;;;;;;4878748;29;20631;-67
2023/08/23 09:26:48;;;;;;;9.37;6.97;;;;;;;;;;4879034;29;20576;-67
2023/08/23 09:29:17;;;;;;;8.83;7.90;;;;;;;;;;4879109;29;20626;-67
2023/08/23 09:31:45;;;;;;;9.87;6.47;;;;;;;;;;4881490;29;21230;-66
2023/08/23 09:34:14;;;;;;;8.87;6.50;;;;;;;;;;4873364;29;20706;-65
2023/08/23 09:36:42;;;;;;;7.27;6.67;;;;;;;;;;4890785;29;20691;-65
2023/08/23 09:39:11;;;;;;;6.97;6.43;;;;;;;;;;4889944;29;20700;-67
2023/08/23 09:41:41;;;;;;;8.10;6.70;;;;;;;;;;4890034;29;20666;-66
2023/08/23 09:44:09;;;;;;;8.43;7.00;;;;;;;;;;4890776;29;20714;-65
2023/08/23 09:46:39;;;;;;;8.47;7.80;;;;;;;;;;4873473;29;21241;-66
2023/08/23 09:49:08;;;;;;;6.50;6.10;;;;;;;;;;4891082;29;20707;-66
2023/08/23 09:51:36;;;;;;;10.50;7.13;;;;;;;;;;4890943;29;20706;-68
2023/08/23 09:54:19;;;;;;;8.43;7.23;;;;;;;;;;4890932;29;20679;-66
2023/08/23 09:56:49;;;;;;;9.93;6.93;;;;;;;;;;4890754;29;20704;-66
2023/08/23 09:59:18;;;;;;;8.17;7.33;;;;;;;;;;4890599;29;20667;-66
2023/08/23 10:01:46;;;;;;;7.40;6.57;;;;;;;;;;4889694;29;21221;-67
2023/08/23 10:04:15;;;;;;;13.63;7.40;;;;;;;;;;4889095;29;20749;-66
2023/08/23 10:06:45;;;;;;;8.17;7.60;;;;;;;;;;4889137;29;20715;-69
2023/08/23 10:09:14;;;;;;;7.47;6.87;;;;;;;;;;4889962;29;20758;-66
2023/08/23 10:11:43;;;;;;;8.70;7.50;;;;;;;;;;4873981;29;20706;-66
2023/08/23 10:14:12;;;;;;;8.23;7.50;;;;;;;;;;4890156;29;20710;-65
2023/08/23 10:16:41;;;;;;;8.30;7.50;;;;;;;;;;4874032;29;20767;-66
2023/08/23 10:19:09;;;;;;;11.90;7.10;;;;;;;;;;4891147;29;20706;-66
2023/08/23 10:21:38;;;;;;;8.33;7.20;;;;;;;;;;4890234;29;20722;-67
2023/08/23 10:24:07;;;;;;;7.50;6.90;;;;;;;;;;4890623;29;21275;-66
2023/08/23 10:26:45;;;;;;;7.13;6.63;;;;;;;;;;4890841;29;21220;-66
2023/08/23 10:29:15;;;;;;;7.07;6.37;;;;;;;;;;4874302;29;21209;-66
2023/08/23 10:31:53;;;;;;;7.73;6.93;;;;;;;;;;4890344;29;20686;-66
2023/08/23 10:34:25;;;;;;;8.00;7.27;;;;;;;;;;4889729;29;20686;-66
2023/08/23 10:36:54;;;;;;;8.40;7.07;;;;;;;;;;4873727;29;20690;-65
2023/08/23 10:39:23;;;;;;;7.60;7.20;;;;;;;;;;4890474;29;20698;-66
2023/08/23 10:41:52;;;;;;;9.10;6.80;;;;;;;;;;4890592;29;20723;-66
2023/08/23 10:44:22;;;;;;;8.20;7.40;;;;;;;;;;4873443;29;21166;-66
2023/08/23 10:46:52;;;;;;;8.57;7.87;;;;;;;;;;4890122;29;20706;-65
2023/08/23 10:49:21;;;;;;;8.60;7.77;;;;;;;;;;4857814;29;20703;-66
2023/08/23 10:51:49;;;;;;;9.50;7.40;;;;;;;;;;4890223;29;20687;-65
2023/08/23 10:54:17;;;;;;;9.17;8.20;;;;;;;;;;4889626;29;20702;-65
2023/08/23 10:56:45;;;;;;;7.87;7.27;;;;;;;;;;4889251;29;20796;-66
2023/08/23 10:59:14;;;;;;;8.80;7.60;;;;;;;;;;4888798;29;20694;-66
2023/08/23 11:01:43;;;;;;;8.23;7.53;;;;;;;;;;4888340;29;20734;-66
2023/08/23 11:04:12;;;;;;;9.07;8.30;;;;;;;;;;4888314;29;20737;-67
2023/08/23 11:06:40;;;;;;;8.80;7.97;;;;;;;;;;4872884;29;20787;-66
2023/08/23 11:09:08;;;;;;;8.03;7.23;;;;;;;;;;4889125;29;20655;-66
2023/08/23 11:11:36;;;;;;;8.33;7.93;;;;;;;;;;4890294;29;20675;-66
2023/08/23 11:14:04;;;;;;;9.50;8.47;;;;;;;;;;4889882;29;20619;-66
2023/08/23 11:16:32;;;;;;;7.87;7.40;;;;;;;;;;4889827;29;20714;-67
2023/08/23 11:19:04;;;;;;;8.47;7.97;;;;;;;;;;4874091;29;20678;-66
2023/08/23 11:21:33;;;;;;;8.73;7.90;;;;;;;;;;4888659;29;20730;-66
2023/08/23 11:24:03;;;;;;;9.27;8.57;;;;;;;;;;4889324;29;20695;-66
2023/08/23 11:26:33;;;;;;;9.17;8.60;;;;;;;;;;4889076;29;20683;-66
2023/08/23 11:29:01;;;;;;;9.47;8.67;;;;;;;;;;4889025;29;20709;-67
2023/08/23 11:31:30;;;;;;;8.90;8.30;;;;;;;;;;4871829;29;20714;-66
2023/08/23 11:33:58;;;;;;;9.70;8.90;;;;;;;;;;4887953;29;20715;-67
2023/08/23 11:36:29;;;;;;;8.93;8.13;;;;;;;;;;4889236;29;21091;-68
2023/08/23 11:39:02;;;;;;;9.00;8.40;;;;;;;;;;4890192;29;20655;-68
2023/08/23 11:41:33;;;;;;;10.40;9.40;;;;;;;;;;4888676;29;21144;-65
2023/08/23 11:44:04;;;;;;;9.67;9.10;;;;;;;;;;4889500;29;20655;-66
2023/08/23 11:46:34;;;;;;;8.97;8.43;;;;;;;;;;4887436;29;20724;-66
2023/08/23 11:49:03;;;;;;;9.60;9.00;;;;;;;;;;4872297;29;20691;-66
2023/08/23 11:51:40;;;;;;;9.70;8.20;;;;;;;;;;4889727;29;20647;-66
2023/08/23 11:54:10;;;;;;;8.43;8.03;;;;;;;;;;4889550;29;20677;-66
2023/08/23 11:56:40;;;;;;;9.83;9.00;;;;;;;;;;4888390;29;20686;-66
2023/08/23 11:59:09;;;;;;;9.20;8.60;;;;;;;;;;4888869;29;20693;-65
2023/08/23 12:01:38;;;;;;;9.67;9.17;;;;;;;;;;4887961;29;20722;-66
2023/08/23 12:04:07;;;;;;;9.03;8.63;;;;;;;;;;4879649;29;21118;-66
2023/08/23 12:06:36;;;;;;;9.83;9.13;;;;;;;;;;4866831;29;20728;-66
2023/08/23 12:09:05;;;;;;;9.27;8.60;;;;;;;;;;4881470;29;20683;-66
2023/08/23 12:11:34;;;;;;;21.53;10.30;;;;;;;;;;4888185;29;21057;-66
2023/08/23 12:14:04;;;;;;;8.77;8.07;;;;;;;;;;4888411;29;20719;-66
2023/08/23 12:16:32;;;;;;;12.50;8.40;;;;;;;;;;4888192;29;20688;-66
2023/08/23 12:19:01;;;;;;;8.80;8.50;;;;;;;;;;4887681;29;20686;-65
2023/08/23 12:21:29;;;;;;;10.67;8.80;;;;;;;;;;4887294;29;20715;-66
2023/08/23 12:23:57;;;;;;;9.10;8.63;;;;;;;;;;4888279;29;20672;-67
2023/08/23 12:26:27;;;;;;;9.67;9.13;;;;;;;;;;4887199;29;21007;-68
2023/08/23 12:28:55;;;;;;;9.23;8.73;;;;;;;;;;4889252;29;20721;-70
2023/08/23 12:31:23;;;;;;;9.27;8.57;;;;;;;;;;4891632;29;20679;-66
2023/08/23 12:33:52;;;;;;;10.30;9.50;;;;;;;;;;4890970;29;20720;-66
2023/08/23 12:36:20;;;;;;;10.47;9.70;;;;;;;;;;4891801;29;20693;-66
2023/08/23 12:38:49;;;;;;;9.27;8.67;;;;;;;;;;4892408;29;20705;-66
2023/08/23 12:41:17;;;;;;;10.07;9.27;;;;;;;;;;4891120;29;20756;-66
2023/08/23 12:43:46;;;;;;;9.17;8.50;;;;;;;;;;4891531;29;20698;-66
2023/08/23 12:46:14;;;;;;;9.60;8.83;;;;;;;;;;4891600;29;20628;-65
2023/08/23 12:48:43;;;;;;;10.07;9.40;;;;;;;;;;4891074;29;20686;-66
2023/08/23 12:51:11;;;;;;;9.73;8.83;;;;;;;;;;4891635;29;20690;-65
2023/08/23 12:53:40;;;;;;;9.50;8.80;;;;;;;;;;4890704;29;21470;-66
2023/08/23 12:56:08;;;;;;;9.03;8.27;;;;;;;;;;4889957;29;21244;-65
2023/08/23 12:58:36;;;;;;;9.93;9.23;;;;;;;;;;4890213;29;20672;-66
2023/08/23 13:01:06;;;;;;;10.00;9.20;;;;;;;;;;4890775;29;20729;-65
2023/08/23 13:03:34;;;;;;;9.60;9.00;;;;;;;;;;4890125;29;20756;-66
2023/08/23 13:06:02;;;;;;;9.47;8.77;;;;;;;;;;4890634;29;20630;-66
2023/08/23 13:08:30;;;;;;;9.70;9.10;;;;;;;;;;4891488;29;20667;-66
2023/08/23 13:10:59;;;;;;;8.93;8.43;;;;;;;;;;4869649;29;20643;-66
2023/08/23 13:13:28;;;;;;;9.67;8.77;;;;;;;;;;4871701;29;20710;-66
2023/08/23 13:15:56;;;;;;;10.10;9.20;;;;;;;;;;4870535;29;20684;-66
2023/08/23 13:18:26;;;;;;;10.00;9.33;;;;;;;;;;4871928;29;20680;-66
2023/08/23 13:20:54;;;;;;;9.93;9.23;;;;;;;;;;4854187;29;21038;-66
2023/08/23 13:23:22;;;;;;;8.73;8.23;;;;;;;;;;4871403;29;20695;-66
2023/08/23 13:25:51;;;;;;;9.73;8.80;;;;;;;;;;4871380;29;20725;-66
2023/08/23 13:28:19;;;;;;;11.70;9.03;;;;;;;;;;4870190;29;20717;-66
2023/08/23 13:30:47;;;;;;;9.40;8.80;;;;;;;;;;4870888;29;20709;-66
2023/08/23 13:33:15;;;;;;;10.00;9.13;;;;;;;;;;4871656;29;20713;-66
2023/08/23 13:35:45;;;;;;;9.50;9.00;;;;;;;;;;4870597;29;20629;-66
2023/08/23 13:38:14;;;;;;;9.37;8.77;;;;;;;;;;4855347;29;20712;-65
2023/08/23 13:40:42;;;;;;;9.90;9.00;;;;;;;;;;4869406;29;20688;-65
2023/08/23 13:43:11;;;;;;;8.87;8.17;;;;;;;;;;4870506;29;20716;-65
2023/08/23 13:45:39;;;;;;;9.50;8.80;;;;;;;;;;4870576;29;21057;-65
2023/08/23 13:48:07;;;;;;;9.37;8.77;;;;;;;;;;4871704;29;20685;-65
2023/08/23 13:50:36;;;;;;;10.20;8.73;;;;;;;;;;4870766;29;20709;-66
2023/08/23 13:53:05;;;;;;;9.50;8.80;;;;;;;;;;4872053;29;20611;-65
2023/08/23 13:55:34;;;;;;;9.30;8.50;;;;;;;;;;4869868;29;20716;-66
2023/08/23 13:58:02;;;;;;;9.20;8.60;;;;;;;;;;4870476;29;20697;-67
2023/08/23 14:00:30;;;;;;;9.00;8.30;;;;;;;;;;4870141;29;20704;-67
2023/08/23 14:02:58;;;;;;;8.93;8.33;;;;;;;;;;4869512;29;20723;-66
2023/08/23 14:05:28;;;;;;;8.87;8.30;;;;;;;;;;4869886;29;20701;-66
2023/08/23 14:07:56;;;;;;;9.87;9.00;;;;;;;;;;4869210;29;20698;-70
2023/08/23 14:10:26;;;;;;;9.83;9.03;;;;;;;;;;4870724;29;20701;-66
2023/08/23 14:12:54;;;;;;;9.30;8.70;;;;;;;;;;4870389;29;20699;-67
2023/08/23 14:15:22;;;;;;;9.60;9.00;;;;;;;;;;4870532;29;20707;-67
2023/08/23 14:17:50;;;;;;;9.23;8.47;;;;;;;;;;4870883;29;20711;-67
2023/08/23 14:20:18;;;;;;;10.80;9.70;;;;;;;;;;4853571;29;20711;-65
2023/08/23 14:22:47;;;;;;;8.90;8.30;;;;;;;;;;4870061;29;20739;-67
2023/08/23 14:25:15;;;;;;;9.10;8.40;;;;;;;;;;4870372;29;20744;-69
2023/08/23 14:27:44;;;;;;;8.60;8.20;;;;;;;;;;4875061;29;20713;-66
2023/08/23 14:30:13;;;;;;;9.23;8.73;;;;;;;;;;4887929;29;21087;-66
2023/08/23 14:32:49;;;;;;;9.67;8.97;;;;;;;;;;4887616;29;21264;-66
2023/08/23 14:35:17;;;;;;;9.53;8.83;;;;;;;;;;4888760;29;20681;-66
2023/08/23 14:37:45;;;;;;;9.57;8.90;;;;;;;;;;4889129;29;20703;-66
2023/08/23 14:40:14;;;;;;;10.10;9.30;;;;;;;;;;4877915;29;20707;-66
2023/08/23 14:42:42;;;;;;;9.30;8.80;;;;;;;;;;4869877;29;21194;-66
2023/08/23 14:45:12;;;;;;;8.83;8.33;;;;;;;;;;4877492;29;20639;-66
2023/08/23 14:47:40;;;;;;;9.40;8.77;;;;;;;;;;4889035;29;21032;-66